createdAt,value
2023-03-26T00:00:57.104Z,76
2023-03-26T00:21:03.572Z,76
2023-03-26T00:41:01.014Z,77
2023-03-26T01:00:58.885Z,77
2023-03-26T01:21:03.613Z,79
2023-03-26T01:40:59.333Z,80
2023-03-26T02:00:58.265Z,80
2023-03-26T02:21:02.004Z,80
2023-03-26T02:41:00.696Z,76
2023-03-26T03:00:57.824Z,75
2023-03-26T03:20:57.790Z,78
2023-03-26T03:40:58.406Z,77
2023-03-26T04:01:22.491Z,78
2023-03-26T04:20:59.360Z,79
2023-03-26T04:40:58.290Z,79
2023-03-26T05:01:10.867Z,81
2023-03-26T05:21:02.748Z,80
2023-03-26T05:40:57.467Z,80
2023-03-26T06:01:38.033Z,85
2023-03-26T06:21:31.300Z,86
2023-03-26T06:41:34.242Z,88
2023-03-26T07:01:30.100Z,88
2023-03-26T07:21:38.165Z,88
2023-03-26T07:41:36.245Z,89
2023-03-26T08:01:27.390Z,83
2023-03-26T08:21:25.973Z,84
2023-03-26T08:41:34.231Z,79
2023-03-26T09:01:26.536Z,78
2023-03-26T09:21:33.714Z,75
2023-03-26T09:41:31.712Z,73
2023-03-26T10:01:30.257Z,74
2023-03-26T10:21:28.610Z,75
2023-03-26T10:41:29.470Z,74
2023-03-26T11:01:32.800Z,73
2023-03-26T11:21:52.931Z,74
2023-03-26T11:41:24.354Z,75
2023-03-26T12:01:31.446Z,76
2023-03-26T12:21:27.325Z,76
2023-03-26T12:45:14.423Z,75
2023-03-26T13:01:26.638Z,75
2023-03-26T13:21:28.659Z,78
2023-03-26T13:41:31.565Z,77
2023-03-26T14:01:33.117Z,87
2023-03-26T14:21:34.291Z,86
2023-03-26T14:41:36.465Z,81
2023-03-26T15:01:33.703Z,77
2023-03-26T15:21:31.646Z,76
2023-03-26T15:41:31.542Z,74
2023-03-26T16:01:33.012Z,74
2023-03-26T16:21:46.808Z,70
